createdAt,value
2023-08-14T00:01:47.675Z,85.77
2023-08-14T00:04:14.548Z,85.71
2023-08-14T00:06:41.426Z,85.70
2023-08-14T00:09:08.463Z,85.60
2023-08-14T00:11:35.330Z,85.21
2023-08-14T00:14:02.796Z,85.75
2023-08-14T00:16:29.591Z,85.77
2023-08-14T00:18:56.431Z,85.93
2023-08-14T00:21:25.173Z,85.73
2023-08-14T00:23:52.312Z,85.46
2023-08-14T00:26:19.101Z,85.46
2023-08-14T00:28:45.956Z,85.43
2023-08-14T00:31:12.892Z,85.23
2023-08-14T00:33:40.505Z,85.55
2023-08-14T00:36:07.448Z,85.77
2023-08-14T00:38:34.248Z,86.04
2023-08-14T00:41:01.088Z,85.91
2023-08-14T00:43:27.956Z,85.80
2023-08-14T00:45:59.029Z,85.76
2023-08-14T00:48:26.741Z,85.90
2023-08-14T00:50:55.789Z,86.13
2023-08-14T00:53:27.642Z,86.00
2023-08-14T00:55:55.554Z,85.78
2023-08-14T00:58:26.263Z,85.70
2023-08-14T01:00:54.117Z,85.94
2023-08-14T01:03:21.922Z,85.85
2023-08-14T01:05:48.803Z,85.94
2023-08-14T01:08:15.659Z,85.86
2023-08-14T01:10:56.436Z,85.85
2023-08-14T01:13:36.797Z,86.11
2023-08-14T01:16:12.239Z,86.27
2023-08-14T01:18:40.718Z,86.26
2023-08-14T01:21:17.219Z,86.29
2023-08-14T01:24:09.852Z,86.48
2023-08-14T01:26:37.348Z,86.79
2023-08-14T01:29:04.848Z,86.95
2023-08-14T01:31:32.199Z,87.15
2023-08-14T01:33:59.093Z,86.99
2023-08-14T01:36:58.929Z,87.10
2023-08-14T01:39:37.208Z,86.97
2023-08-14T01:42:06.860Z,87.16
2023-08-14T01:44:36.425Z,87.16
2023-08-14T01:47:05.396Z,87.21
2023-08-14T01:49:33.403Z,87.12
2023-08-14T01:52:01.292Z,87.80
2023-08-14T01:54:28.768Z,87.42
2023-08-14T01:56:57.653Z,87.78
2023-08-14T01:59:36.983Z,87.48
2023-08-14T02:02:03.681Z,87.51
2023-08-14T02:04:30.566Z,87.56
2023-08-14T02:06:57.524Z,87.99
2023-08-14T02:09:24.391Z,87.57
2023-08-14T02:11:51.183Z,88.08
2023-08-14T02:14:18.462Z,87.93
2023-08-14T02:16:45.349Z,87.65
2023-08-14T02:19:12.272Z,87.99
2023-08-14T02:21:39.167Z,87.86
2023-08-14T02:24:07.040Z,88.05
2023-08-14T02:26:33.895Z,87.93
2023-08-14T02:29:02.099Z,88.12
2023-08-14T02:31:28.921Z,88.12
2023-08-14T02:34:03.005Z,88.22
2023-08-14T02:36:30.223Z,88.28
2023-08-14T02:38:57.065Z,88.33
2023-08-14T02:41:23.891Z,88.78
2023-08-14T02:43:50.780Z,88.51
2023-08-14T02:46:17.653Z,88.25
2023-08-14T02:48:46.523Z,88.54
2023-08-14T02:51:13.597Z,88.73
2023-08-14T02:53:40.412Z,88.75
2023-08-14T02:56:07.604Z,88.93
2023-08-14T02:58:36.897Z,88.91
2023-08-14T03:01:05.531Z,88.98
2023-08-14T03:03:32.540Z,89.04
2023-08-14T03:06:00.470Z,89.16
2023-08-14T03:08:27.837Z,89.05
2023-08-14T03:10:54.675Z,89.40
2023-08-14T03:13:22.368Z,89.42
2023-08-14T03:15:49.231Z,89.56
2023-08-14T03:18:16.011Z,89.67
2023-08-14T03:20:42.868Z,89.97
2023-08-14T03:23:12.150Z,89.59
2023-08-14T03:25:39.124Z,89.55
2023-08-14T03:28:06.768Z,89.72
2023-08-14T03:30:34.960Z,89.82
2023-08-14T03:33:01.982Z,89.66
2023-08-14T03:35:28.809Z,89.95
2023-08-14T03:37:55.709Z,90.11
2023-08-14T03:40:22.574Z,89.73
2023-08-14T03:42:49.400Z,90.25
2023-08-14T03:45:16.837Z,89.76
2023-08-14T03:47:43.998Z,90.23
2023-08-14T03:50:10.985Z,89.96
2023-08-14T03:52:37.895Z,90.03
2023-08-14T03:55:04.935Z,90.31
2023-08-14T03:57:31.863Z,90.14
2023-08-14T03:59:58.720Z,90.21
2023-08-14T04:02:25.732Z,90.36
2023-08-14T04:04:52.867Z,90.31
2023-08-14T04:07:19.765Z,90.49
2023-08-14T04:09:46.605Z,90.32
2023-08-14T04:12:13.548Z,90.23
2023-08-14T04:14:40.466Z,90.49
2023-08-14T04:17:07.497Z,90.47
2023-08-14T04:19:34.374Z,90.45
2023-08-14T04:22:01.216Z,90.63
2023-08-14T04:24:28.460Z,90.41
2023-08-14T04:26:55.518Z,90.49
2023-08-14T04:29:22.350Z,90.60
2023-08-14T04:31:49.288Z,90.74
2023-08-14T04:34:16.134Z,90.34
2023-08-14T04:36:42.979Z,90.63
2023-08-14T04:39:09.846Z,90.29
2023-08-14T04:41:36.715Z,90.40
2023-08-14T04:44:03.926Z,90.38
2023-08-14T04:46:53.208Z,90.27
2023-08-14T04:49:21.001Z,89.99
2023-08-14T04:51:47.789Z,90.11
2023-08-14T04:54:14.601Z,89.86
2023-08-14T04:56:41.620Z,89.86
2023-08-14T04:59:08.453Z,89.81
2023-08-14T05:01:35.283Z,89.48
2023-08-14T05:04:02.105Z,89.16
2023-08-14T05:06:29.095Z,89.14
2023-08-14T05:08:55.898Z,88.84
2023-08-14T05:11:22.791Z,88.42
2023-08-14T05:13:49.739Z,87.82
2023-08-14T05:16:16.685Z,87.09
2023-08-14T05:18:43.559Z,86.14
2023-08-14T05:21:10.790Z,85.12
2023-08-14T05:23:37.931Z,84.28
2023-08-14T05:26:04.798Z,83.33
2023-08-14T05:28:31.788Z,82.91
2023-08-14T05:30:58.610Z,82.38
2023-08-14T05:33:25.649Z,82.09
2023-08-14T05:35:56.646Z,81.76
2023-08-14T05:38:23.460Z,80.93
2023-08-14T05:40:50.267Z,80.31
2023-08-14T05:43:17.357Z,79.29
2023-08-14T05:45:46.639Z,78.89
2023-08-14T05:48:15.478Z,78.28
2023-08-14T05:50:43.271Z,77.35
2023-08-14T05:53:10.862Z,76.16
2023-08-14T05:55:42.794Z,74.78
2023-08-14T05:58:09.951Z,73.03
2023-08-14T06:00:38.809Z,71.12
2023-08-14T06:03:06.841Z,69.88
2023-08-14T06:05:35.164Z,67.82
2023-08-14T06:08:03.054Z,66.67
2023-08-14T06:10:30.225Z,66.14
2023-08-14T06:12:57.732Z,65.06
2023-08-14T06:15:26.528Z,64.65
2023-08-14T06:17:53.952Z,63.96
2023-08-14T06:20:21.643Z,63.32
2023-08-14T06:22:48.933Z,62.18
2023-08-14T06:25:18.194Z,62.01
2023-08-14T06:27:45.237Z,61.35
2023-08-14T06:30:13.443Z,60.65
2023-08-14T06:32:40.743Z,60.11
2023-08-14T06:35:09.205Z,58.99
2023-08-14T06:37:36.590Z,58.68
2023-08-14T06:40:05.415Z,58.40
2023-08-14T06:42:32.120Z,57.81
2023-08-14T06:44:59.224Z,57.56
2023-08-14T06:47:26.452Z,57.85
2023-08-14T06:49:53.495Z,57.59
2023-08-14T06:52:20.965Z,57.12
2023-08-14T06:54:48.306Z,56.02
2023-08-14T06:57:35.297Z,55.61
2023-08-14T07:00:13.765Z,54.62
2023-08-14T07:02:42.031Z,53.40
2023-08-14T07:05:11.478Z,54.18
2023-08-14T07:07:39.732Z,53.77
2023-08-14T07:10:08.009Z,52.80
2023-08-14T07:12:35.101Z,52.20
2023-08-14T07:15:02.148Z,52.46
2023-08-14T07:17:29.554Z,52.75
2023-08-14T07:19:56.647Z,53.01
2023-08-14T07:22:23.718Z,52.38
2023-08-14T07:24:50.670Z,52.13
2023-08-14T07:27:18.731Z,52.25
2023-08-14T07:29:45.820Z,51.69
2023-08-14T07:32:13.059Z,51.48
2023-08-14T07:34:40.031Z,51.24
2023-08-14T07:37:07.146Z,51.49
2023-08-14T07:39:34.228Z,50.84
2023-08-14T07:42:01.415Z,50.88
2023-08-14T07:44:28.387Z,50.38
2023-08-14T07:46:55.509Z,50.41
2023-08-14T07:49:22.500Z,49.84
2023-08-14T07:51:50.173Z,50.04
2023-08-14T07:54:18.196Z,50.08
2023-08-14T07:56:47.076Z,49.33
2023-08-14T07:59:15.196Z,48.45
2023-08-14T08:01:43.085Z,48.90
2023-08-14T08:04:10.645Z,48.63
2023-08-14T08:06:44.675Z,47.44
2023-08-14T08:09:13.679Z,47.52
2023-08-14T08:11:40.738Z,48.07
2023-08-14T08:14:08.160Z,47.70
2023-08-14T08:16:38.767Z,47.23
2023-08-14T08:19:08.145Z,46.82
2023-08-14T08:21:35.250Z,47.21
2023-08-14T08:24:02.355Z,46.34
2023-08-14T08:26:29.469Z,46.08
2023-08-14T08:28:56.576Z,46.00
2023-08-14T08:31:25.199Z,46.34
2023-08-14T08:33:51.909Z,47.20
2023-08-14T08:36:19.211Z,47.04
2023-08-14T08:38:46.855Z,46.04
2023-08-14T08:41:23.959Z,46.38
2023-08-14T08:44:00.713Z,46.14
2023-08-14T08:46:30.636Z,47.78
2023-08-14T08:48:58.112Z,46.87
2023-08-14T08:51:25.576Z,46.40
2023-08-14T08:53:52.449Z,46.32
2023-08-14T08:56:19.782Z,46.19
2023-08-14T08:58:47.488Z,45.46
2023-08-14T09:01:14.918Z,45.22
2023-08-14T09:03:42.144Z,45.42
2023-08-14T09:06:09.358Z,44.56
2023-08-14T09:08:37.484Z,43.92
2023-08-14T09:11:04.697Z,44.74
2023-08-14T09:13:32.727Z,45.12
2023-08-14T09:16:02.449Z,44.92
2023-08-14T09:18:31.971Z,45.07
2023-08-14T09:20:59.834Z,44.12
2023-08-14T09:23:27.011Z,42.70
2023-08-14T09:25:54.053Z,42.31
2023-08-14T09:28:23.042Z,42.08
2023-08-14T09:30:50.049Z,43.06
2023-08-14T09:33:17.276Z,44.17
2023-08-14T09:35:53.216Z,43.79
2023-08-14T09:38:20.772Z,43.07
2023-08-14T09:40:47.685Z,42.61
2023-08-14T09:43:14.699Z,43.02
2023-08-14T09:45:41.631Z,42.36
2023-08-14T09:48:09.713Z,41.31
2023-08-14T09:50:37.119Z,41.06
2023-08-14T09:53:04.103Z,40.84
2023-08-14T09:55:31.037Z,42.34
2023-08-14T09:57:58.300Z,44.92
2023-08-14T10:00:30.436Z,44.90
2023-08-14T10:03:03.054Z,43.46
2023-08-14T10:05:31.627Z,43.24
2023-08-14T10:07:59.901Z,42.87
2023-08-14T10:10:31.194Z,41.50
2023-08-14T10:13:06.220Z,40.96
2023-08-14T10:15:40.875Z,41.58
2023-08-14T10:18:16.805Z,41.63
2023-08-14T10:20:49.493Z,41.84
2023-08-14T10:23:17.862Z,41.43
2023-08-14T10:25:51.766Z,41.13
2023-08-14T10:28:22.084Z,41.47
2023-08-14T10:30:49.413Z,42.57
2023-08-14T10:33:18.804Z,42.90
2023-08-14T10:35:55.651Z,42.44
2023-08-14T10:38:45.505Z,42.34
2023-08-14T10:41:12.633Z,41.68
2023-08-14T10:43:39.654Z,41.43
2023-08-14T10:46:15.760Z,41.96
2023-08-14T10:48:44.737Z,41.74
2023-08-14T10:51:16.991Z,41.95
2023-08-14T10:53:46.147Z,42.65
2023-08-14T10:56:13.827Z,42.51
2023-08-14T10:58:48.928Z,42.44
2023-08-14T11:01:17.963Z,42.72
2023-08-14T11:04:06.248Z,42.27
2023-08-14T11:07:00.968Z,42.32
2023-08-14T11:09:32.586Z,42.55
2023-08-14T11:12:03.866Z,41.79
2023-08-14T11:14:30.641Z,41.91
2023-08-14T11:16:58.162Z,42.08
2023-08-14T11:19:25.460Z,42.00
2023-08-14T11:21:52.777Z,41.73
2023-08-14T11:24:19.866Z,41.68
2023-08-14T11:26:46.819Z,41.28
2023-08-14T11:29:13.809Z,41.61
2023-08-14T11:31:49.620Z,41.75
2023-08-14T11:34:17.509Z,42.59
2023-08-14T11:37:07.104Z,42.59
2023-08-14T11:39:45.111Z,42.62
2023-08-14T11:42:12.279Z,42.98
2023-08-14T11:44:39.525Z,42.84
2023-08-14T11:47:08.348Z,43.10
2023-08-14T11:49:39.533Z,43.01
2023-08-14T11:52:07.656Z,42.97
2023-08-14T11:54:36.809Z,42.61
2023-08-14T11:57:06.338Z,42.35
2023-08-14T11:59:33.910Z,42.37
2023-08-14T12:02:02.011Z,41.79
2023-08-14T12:04:29.006Z,42.28
2023-08-14T12:06:56.513Z,41.70
2023-08-14T12:09:29.718Z,41.57
2023-08-14T12:11:56.909Z,40.69
2023-08-14T12:14:23.911Z,40.42
2023-08-14T12:16:50.975Z,40.61
2023-08-14T12:19:20.957Z,40.55
2023-08-14T12:21:56.959Z,41.24
2023-08-14T12:24:24.835Z,41.03
2023-08-14T12:26:52.061Z,41.68
2023-08-14T12:29:22.112Z,41.48
2023-08-14T12:58:26.792Z,41.56
2023-08-14T13:00:54.774Z,42.40
2023-08-14T13:03:38.006Z,41.88
2023-08-14T13:06:08.376Z,41.93
2023-08-14T13:08:41.921Z,41.89
2023-08-14T13:11:10.600Z,41.81
2023-08-14T13:13:37.673Z,41.62
2023-08-14T13:16:06.225Z,41.70
2023-08-14T13:23:30.448Z,41.94
2023-08-14T13:31:39.513Z,43.11
2023-08-14T13:34:06.533Z,43.28
2023-08-14T13:36:33.558Z,42.72
2023-08-14T13:39:00.588Z,42.52
2023-08-14T13:41:27.693Z,42.20
2023-08-14T13:43:54.692Z,42.33
2023-08-14T13:46:21.665Z,42.74
2023-08-14T13:48:48.566Z,44.15
2023-08-14T13:51:15.592Z,43.68
2023-08-14T13:53:42.998Z,43.67
2023-08-14T13:56:10.089Z,43.52
2023-08-14T13:58:37.633Z,43.17
2023-08-14T14:01:05.112Z,43.28
2023-08-14T14:03:36.092Z,43.57
2023-08-14T14:06:03.424Z,43.59
2023-08-14T14:08:53.660Z,42.95
2023-08-14T14:11:20.998Z,42.98
2023-08-14T14:13:54.848Z,43.81
2023-08-14T14:16:26.462Z,43.75
2023-08-14T14:18:57.663Z,43.95
2023-08-14T14:21:41.688Z,44.32
2023-08-14T14:24:09.529Z,44.26
2023-08-14T14:26:40.808Z,43.88
2023-08-14T14:29:08.155Z,44.04
2023-08-14T14:31:35.753Z,44.58
2023-08-14T14:34:03.174Z,44.02
2023-08-14T14:36:30.667Z,43.86
2023-08-14T14:38:57.867Z,43.83
2023-08-14T14:41:25.087Z,43.90
2023-08-14T14:43:52.365Z,44.00
2023-08-14T14:46:19.923Z,44.89
2023-08-14T14:48:47.009Z,45.38
2023-08-14T14:51:14.032Z,44.68
2023-08-14T14:53:41.113Z,44.53
2023-08-14T14:56:07.977Z,44.52
2023-08-14T14:58:34.894Z,44.73
2023-08-14T15:01:01.838Z,45.12
2023-08-14T15:03:29.273Z,45.17
2023-08-14T15:05:56.596Z,44.89
2023-08-14T15:08:23.464Z,45.09
2023-08-14T15:10:55.500Z,44.94
2023-08-14T15:13:25.413Z,44.74
2023-08-14T15:15:52.322Z,44.79
2023-08-14T15:18:19.553Z,44.93
2023-08-14T15:20:46.651Z,45.25
2023-08-14T15:23:13.500Z,45.02
2023-08-14T15:25:40.931Z,44.92
2023-08-14T15:28:08.019Z,44.38
2023-08-14T15:30:36.805Z,44.54
2023-08-14T15:33:03.978Z,44.72
2023-08-14T15:35:31.671Z,45.29
2023-08-14T15:37:58.524Z,46.20
2023-08-14T15:40:25.868Z,46.65
2023-08-14T15:42:53.409Z,46.47
2023-08-14T15:45:20.434Z,46.00
2023-08-14T15:47:47.689Z,45.71
2023-08-14T15:50:14.963Z,45.91
2023-08-14T15:52:41.863Z,46.06
2023-08-14T15:55:09.534Z,46.78
2023-08-14T15:57:36.540Z,46.41
2023-08-14T16:00:07.993Z,46.34
2023-08-14T16:02:35.521Z,46.44
2023-08-14T16:05:02.756Z,47.08
2023-08-14T16:07:29.615Z,47.14
2023-08-14T16:09:56.559Z,47.26
2023-08-14T16:12:23.833Z,47.42
2023-08-14T16:14:51.082Z,47.85
2023-08-14T16:17:25.874Z,49.02
2023-08-14T16:19:52.910Z,49.10
2023-08-14T16:22:20.841Z,48.56
2023-08-14T16:24:49.594Z,48.75
2023-08-14T16:27:19.806Z,49.05
2023-08-14T16:29:47.659Z,50.07
2023-08-14T16:32:16.183Z,50.52
2023-08-14T16:34:44.018Z,50.92
2023-08-14T16:37:12.782Z,51.82
2023-08-14T16:39:39.944Z,52.36
2023-08-14T16:42:07.781Z,52.04
2023-08-14T16:44:35.402Z,52.77
2023-08-14T16:47:02.378Z,53.39
2023-08-14T16:49:35.650Z,54.48
2023-08-14T16:52:02.825Z,54.99
2023-08-14T16:54:30.059Z,55.61
2023-08-14T16:56:57.368Z,55.97
2023-08-14T16:59:24.561Z,56.34
2023-08-14T17:01:51.624Z,56.65
2023-08-14T17:04:18.915Z,56.86
2023-08-14T17:06:45.949Z,57.32
2023-08-14T17:09:15.384Z,57.84
2023-08-14T17:11:42.592Z,58.26
2023-08-14T17:14:09.768Z,58.94
2023-08-14T17:16:43.508Z,59.16
2023-08-14T17:19:10.877Z,59.58
2023-08-14T17:21:55.255Z,59.86
2023-08-14T17:24:42.684Z,60.21
2023-08-14T17:27:10.581Z,60.45
2023-08-14T17:29:52.796Z,60.77
2023-08-14T17:32:20.603Z,60.96
2023-08-14T17:35:04.515Z,61.14
2023-08-14T17:37:32.301Z,61.36
2023-08-14T17:39:59.960Z,61.52
2023-08-14T17:42:29.858Z,61.71
2023-08-14T17:45:12.405Z,61.82
2023-08-14T17:47:39.777Z,62.10
2023-08-14T17:50:07.049Z,62.28
2023-08-14T17:52:40.372Z,62.51
2023-08-14T17:55:08.668Z,62.69
2023-08-14T17:57:40.385Z,62.92
2023-08-14T18:00:08.643Z,63.20
2023-08-14T18:02:35.493Z,63.56
2023-08-14T18:05:02.339Z,63.66
2023-08-14T18:07:29.144Z,64.02
2023-08-14T18:09:56.681Z,64.22
2023-08-14T18:12:24.752Z,64.56
2023-08-14T18:14:51.544Z,64.84
2023-08-14T18:17:18.721Z,65.11
2023-08-14T18:19:45.927Z,65.33
2023-08-14T18:22:12.730Z,65.70
2023-08-14T18:24:40.158Z,65.93
2023-08-14T18:27:06.899Z,66.39
2023-08-14T18:29:33.761Z,66.72
2023-08-14T18:32:00.501Z,66.99
2023-08-14T18:34:27.444Z,67.20
2023-08-14T18:36:54.253Z,67.42
2023-08-14T18:39:21.103Z,67.75
2023-08-14T18:41:47.935Z,67.95
2023-08-14T18:44:14.768Z,68.13
2023-08-14T18:46:41.624Z,68.26
2023-08-14T18:49:09.032Z,68.46
2023-08-14T18:51:35.957Z,68.64
2023-08-14T18:54:04.018Z,68.86
2023-08-14T18:56:30.794Z,68.94
2023-08-14T18:58:59.497Z,69.19
2023-08-14T19:01:43.995Z,69.31
2023-08-14T19:04:25.741Z,69.45
2023-08-14T19:06:56.586Z,69.79
2023-08-14T19:09:23.348Z,69.81
2023-08-14T19:11:50.155Z,70.01
2023-08-14T19:14:17.174Z,70.21
2023-08-14T19:16:44.045Z,70.33
2023-08-14T19:19:11.001Z,70.45
2023-08-14T19:21:37.857Z,70.66
2023-08-14T19:24:05.048Z,70.85
2023-08-14T19:26:31.936Z,70.91
2023-08-14T19:28:59.138Z,71.14
2023-08-14T19:31:28.967Z,71.28
2023-08-14T19:33:59.971Z,71.44
2023-08-14T19:36:26.796Z,71.49
2023-08-14T19:38:53.674Z,71.61
2023-08-14T19:41:20.553Z,71.93
2023-08-14T19:43:47.350Z,72.15
2023-08-14T19:46:14.202Z,72.41
2023-08-14T19:48:41.206Z,72.63
2023-08-14T19:51:12.822Z,72.52
2023-08-14T19:53:39.628Z,72.69
2023-08-14T19:56:06.969Z,72.99
2023-08-14T19:58:34.366Z,73.15
2023-08-14T20:01:02.621Z,73.23
2023-08-14T20:03:31.517Z,73.47
2023-08-14T20:05:58.685Z,73.72
2023-08-14T20:08:25.592Z,74.05
2023-08-14T20:10:52.414Z,74.17
2023-08-14T20:13:19.227Z,74.29
2023-08-14T20:15:49.234Z,74.34
2023-08-14T20:18:16.813Z,74.43
2023-08-14T20:20:44.772Z,74.47
2023-08-14T20:23:12.160Z,74.40
2023-08-14T20:25:39.027Z,74.71
2023-08-14T20:28:07.087Z,74.88
2023-08-14T20:30:40.566Z,75.02
2023-08-14T20:33:07.950Z,75.11
2023-08-14T20:35:46.243Z,75.29
2023-08-14T20:38:13.754Z,75.28
2023-08-14T20:40:41.340Z,75.67
2023-08-14T20:43:24.037Z,75.90
2023-08-14T20:45:50.905Z,76.21
2023-08-14T20:48:17.791Z,76.36
2023-08-14T20:50:49.469Z,76.41
2023-08-14T20:53:17.157Z,76.42
2023-08-14T20:55:44.596Z,76.44
2023-08-14T20:58:12.351Z,76.80
2023-08-14T21:00:43.800Z,76.93
2023-08-14T21:03:16.378Z,76.85
2023-08-14T21:05:50.656Z,77.15
2023-08-14T21:08:18.045Z,77.07
2023-08-14T21:10:44.887Z,77.24
2023-08-14T21:13:11.742Z,77.09
2023-08-14T21:15:39.137Z,77.24
2023-08-14T21:18:08.505Z,77.19
2023-08-14T21:20:35.386Z,77.32
2023-08-14T21:23:02.353Z,77.48
2023-08-14T21:25:34.890Z,77.76
2023-08-14T21:28:05.194Z,78.01
2023-08-14T21:30:32.117Z,77.86
2023-08-14T21:32:58.849Z,77.92
2023-08-14T21:35:25.642Z,77.81
2023-08-14T21:37:52.456Z,78.40
2023-08-14T21:40:19.210Z,78.25
2023-08-14T21:42:46.728Z,78.45
2023-08-14T21:45:13.448Z,78.75
2023-08-14T21:47:40.281Z,78.72
2023-08-14T21:50:07.514Z,78.65
2023-08-14T21:52:34.388Z,78.96
2023-08-14T21:55:01.102Z,79.34
2023-08-14T21:57:28.113Z,79.25
2023-08-14T21:59:54.854Z,79.06
2023-08-14T22:02:21.728Z,79.13
2023-08-14T22:04:48.596Z,79.04
2023-08-14T22:07:20.539Z,79.13
2023-08-14T22:09:48.464Z,79.25
2023-08-14T22:12:15.604Z,79.28
2023-08-14T22:14:44.824Z,79.40
2023-08-14T22:17:14.518Z,79.68
2023-08-14T22:19:41.324Z,79.74
2023-08-14T22:22:08.110Z,80.06
2023-08-14T22:24:40.640Z,80.04
2023-08-14T22:27:08.356Z,80.00
2023-08-14T22:29:35.200Z,79.96
2023-08-14T22:32:02.192Z,80.01
2023-08-14T22:34:28.946Z,80.32
2023-08-14T22:36:55.722Z,80.62
2023-08-14T22:39:22.465Z,80.59
2023-08-14T22:41:49.262Z,80.41
2023-08-14T22:44:16.005Z,80.49
2023-08-14T22:46:42.827Z,80.43
2023-08-14T22:49:09.642Z,80.75
2023-08-14T22:51:36.422Z,80.80
2023-08-14T22:54:03.868Z,80.82
2023-08-14T22:56:30.690Z,80.82
2023-08-14T22:58:57.486Z,80.81
2023-08-14T23:01:24.315Z,81.15
2023-08-14T23:03:51.208Z,80.84
2023-08-14T23:06:18.044Z,80.95
2023-08-14T23:08:44.893Z,81.29
2023-08-14T23:11:11.732Z,81.36
2023-08-14T23:13:38.528Z,81.55
2023-08-14T23:16:05.545Z,81.98
2023-08-14T23:18:32.389Z,81.83
2023-08-14T23:20:59.189Z,81.64
2023-08-14T23:23:25.873Z,81.73
2023-08-14T23:25:52.753Z,81.88
2023-08-14T23:28:19.586Z,81.66
2023-08-14T23:30:46.388Z,81.83
2023-08-14T23:33:13.215Z,82.20
2023-08-14T23:35:39.989Z,81.99
2023-08-14T23:38:06.790Z,81.97
2023-08-14T23:40:33.609Z,82.15
2023-08-14T23:43:00.386Z,82.17
2023-08-14T23:45:27.180Z,82.18
2023-08-14T23:47:54.125Z,82.35
2023-08-14T23:50:20.964Z,82.41
2023-08-14T23:52:47.790Z,82.66
2023-08-14T23:55:14.763Z,82.92
2023-08-14T23:57:41.627Z,82.76
